Time;durP1;ratioP1;P1;durP2;ratioP2;P2;SDS_P1;SDS_P2;PMS_P1;PMS_P2;Temp;Humidity;BMP_temperature;BMP_pressure;BME280_temperature;BME280_humidity;BME280_pressure;Samples;Min_cycle;Max_cycle;Signal;HPM_P1;HPM_P2
2023/05/19 00:00:04;;;;;;;15.45;5.40;;;;;;;;;;4972602;28;25060;-71
2023/05/19 00:02:32;;;;;;;15.18;5.63;;;;;;;;;;4972930;28;25054;-73
2023/05/19 00:04:58;;;;;;;14.15;5.85;;;;;;;;;;4974001;28;25069;-74
2023/05/19 00:07:26;;;;;;;11.43;6.38;;;;;;;;;;4974801;28;25087;-74
2023/05/19 00:09:52;;;;;;;8.98;5.43;;;;;;;;;;4971667;28;25074;-72
2023/05/19 00:12:18;;;;;;;14.68;6.82;;;;;;;;;;4975517;28;25083;-73
2023/05/19 00:14:44;;;;;;;17.55;6.28;;;;;;;;;;4975047;28;25073;-73
2023/05/19 00:17:10;;;;;;;11.75;5.95;;;;;;;;;;4971675;28;25058;-72
2023/05/19 00:19:36;;;;;;;11.30;6.18;;;;;;;;;;4974824;28;25070;-72
2023/05/19 00:22:03;;;;;;;17.38;6.10;;;;;;;;;;4973342;28;25074;-73
2023/05/19 00:24:29;;;;;;;9.55;5.32;;;;;;;;;;4971910;28;25100;-72
2023/05/19 00:26:55;;;;;;;13.70;5.68;;;;;;;;;;4972070;28;25093;-71
2023/05/19 00:29:21;;;;;;;10.85;4.75;;;;;;;;;;4971895;28;25167;-70
2023/05/19 00:31:47;;;;;;;14.57;5.68;;;;;;;;;;4972791;28;25110;-71
2023/05/19 00:34:13;;;;;;;12.95;5.65;;;;;;;;;;4975867;28;25085;-72
2023/05/19 00:36:39;;;;;;;11.90;5.05;;;;;;;;;;4972545;28;25074;-73
2023/05/19 00:39:05;;;;;;;15.77;5.72;;;;;;;;;;4970936;28;25093;-72
2023/05/19 00:41:31;;;;;;;6.95;4.93;;;;;;;;;;4973602;28;25077;-72
2023/05/19 00:43:57;;;;;;;14.60;5.15;;;;;;;;;;4973303;28;25075;-72
2023/05/19 00:46:23;;;;;;;11.98;4.53;;;;;;;;;;4973645;28;25084;-73
2023/05/19 00:48:49;;;;;;;8.88;4.88;;;;;;;;;;4973743;28;25052;-74
2023/05/19 00:51:16;;;;;;;12.48;4.63;;;;;;;;;;4972684;28;25062;-73
2023/05/19 00:53:47;;;;;;;12.25;5.00;;;;;;;;;;4974243;28;25057;-72
2023/05/19 00:56:13;;;;;;;10.00;4.70;;;;;;;;;;4979641;28;25074;-74
2023/05/19 00:58:40;;;;;;;11.50;4.95;;;;;;;;;;4972793;28;25206;-71
2023/05/19 01:01:07;;;;;;;9.98;4.88;;;;;;;;;;4970687;28;25077;-73
2023/05/19 01:03:34;;;;;;;17.20;5.50;;;;;;;;;;4971445;28;25066;-71
2023/05/19 01:06:03;;;;;;;10.32;4.90;;;;;;;;;;4971690;28;25142;-72
2023/05/19 01:08:30;;;;;;;11.77;4.68;;;;;;;;;;4971654;28;25076;-73
2023/05/19 01:10:56;;;;;;;17.52;5.78;;;;;;;;;;4971554;28;25064;-74
2023/05/19 01:13:22;;;;;;;20.13;6.13;;;;;;;;;;4971415;28;25079;-73
2023/05/19 01:15:57;;;;;;;19.00;5.65;;;;;;;;;;4971064;28;25065;-71
2023/05/19 01:18:27;;;;;;;9.15;4.68;;;;;;;;;;4970426;28;25092;-73
2023/05/19 01:21:26;;;;;;;10.25;5.22;;;;;;;;;;4968166;28;25055;-72
2023/05/19 01:24:00;;;;;;;11.18;5.00;;;;;;;;;;4928981;28;25051;-71
2023/05/19 01:26:39;;;;;;;25.98;6.78;;;;;;;;;;4971306;28;25072;-70
2023/05/19 01:29:05;;;;;;;13.73;6.07;;;;;;;;;;4969622;28;25107;-72
2023/05/19 01:31:32;;;;;;;13.55;5.82;;;;;;;;;;4971599;28;25142;-73
2023/05/19 01:33:59;;;;;;;11.00;6.00;;;;;;;;;;4974645;28;25057;-73
2023/05/19 01:36:27;;;;;;;12.82;6.15;;;;;;;;;;4973769;28;25094;-71
2023/05/19 01:38:55;;;;;;;15.55;6.10;;;;;;;;;;4968068;28;25071;-71
2023/05/19 01:41:21;;;;;;;13.65;6.13;;;;;;;;;;4969865;28;25072;-73
2023/05/19 01:43:48;;;;;;;11.57;5.60;;;;;;;;;;4971572;28;25062;-73
2023/05/19 01:46:15;;;;;;;15.77;6.25;;;;;;;;;;4969745;28;25069;-73
2023/05/19 01:48:42;;;;;;;9.75;5.28;;;;;;;;;;4968758;28;25112;-71
2023/05/19 01:51:07;;;;;;;15.43;5.43;;;;;;;;;;4973657;28;25106;-70
2023/05/19 01:53:34;;;;;;;17.08;6.35;;;;;;;;;;4973757;28;25073;-73
2023/05/19 01:56:00;;;;;;;12.90;6.30;;;;;;;;;;4979165;28;25069;-71
2023/05/19 01:58:34;;;;;;;13.98;6.07;;;;;;;;;;4977615;28;25072;-71
2023/05/19 02:01:10;;;;;;;12.70;5.68;;;;;;;;;;4978087;28;25107;-71
2023/05/19 02:03:47;;;;;;;13.88;5.90;;;;;;;;;;4975187;28;25054;-73
2023/05/19 02:06:18;;;;;;;13.00;5.97;;;;;;;;;;4969735;28;25062;-72
2023/05/19 02:08:44;;;;;;;14.38;6.35;;;;;;;;;;4974007;28;25106;-70
2023/05/19 02:11:14;;;;;;;16.10;5.90;;;;;;;;;;4974086;28;25076;-71
2023/05/19 02:13:42;;;;;;;13.20;5.10;;;;;;;;;;4971198;28;25178;-72
2023/05/19 02:16:10;;;;;;;15.23;6.75;;;;;;;;;;4973005;28;25109;-72
2023/05/19 02:18:36;;;;;;;17.20;5.78;;;;;;;;;;4971482;28;25055;-73
2023/05/19 02:21:02;;;;;;;16.10;5.47;;;;;;;;;;4970934;28;25071;-72
2023/05/19 02:23:28;;;;;;;14.02;6.00;;;;;;;;;;4972193;28;25078;-72
2023/05/19 02:25:54;;;;;;;16.65;6.93;;;;;;;;;;4973048;28;25073;-70
2023/05/19 02:28:20;;;;;;;16.10;6.38;;;;;;;;;;4972726;28;25124;-72
2023/05/19 02:30:46;;;;;;;18.17;6.30;;;;;;;;;;4973775;28;25090;-71
2023/05/19 02:33:12;;;;;;;13.55;7.38;;;;;;;;;;4977799;28;25076;-72
2023/05/19 02:35:38;;;;;;;11.65;6.30;;;;;;;;;;4985645;28;25077;-72
2023/05/19 02:38:04;;;;;;;15.10;5.75;;;;;;;;;;4988705;28;25086;-72
2023/05/19 02:40:30;;;;;;;12.70;6.22;;;;;;;;;;4988038;28;25080;-71
2023/05/19 02:42:56;;;;;;;9.15;5.43;;;;;;;;;;4987627;28;25075;-73
2023/05/19 02:45:22;;;;;;;13.70;5.65;;;;;;;;;;4985728;28;25170;-73
2023/05/19 02:47:48;;;;;;;15.40;5.97;;;;;;;;;;4975570;28;25064;-73
2023/05/19 02:50:14;;;;;;;15.93;6.18;;;;;;;;;;4972953;28;25134;-71
2023/05/19 02:52:40;;;;;;;15.30;5.95;;;;;;;;;;4973671;28;25072;-72
2023/05/19 02:55:06;;;;;;;16.20;6.10;;;;;;;;;;4973246;28;25111;-72
2023/05/19 02:57:33;;;;;;;16.38;7.28;;;;;;;;;;4973541;28;25152;-71
2023/05/19 02:59:59;;;;;;;12.52;6.43;;;;;;;;;;4971999;28;25060;-72
2023/05/19 03:02:24;;;;;;;14.82;7.28;;;;;;;;;;4970510;28;25069;-72
2023/05/19 03:04:50;;;;;;;13.02;6.72;;;;;;;;;;4971497;28;25166;-72
2023/05/19 03:07:16;;;;;;;18.90;6.07;;;;;;;;;;4971591;28;25075;-74
2023/05/19 03:09:42;;;;;;;18.30;7.05;;;;;;;;;;4975918;28;25118;-71
2023/05/19 03:12:08;;;;;;;12.60;6.68;;;;;;;;;;4971272;28;25095;-71
2023/05/19 03:14:36;;;;;;;16.42;6.15;;;;;;;;;;4972086;28;25071;-73
2023/05/19 03:17:02;;;;;;;16.30;6.55;;;;;;;;;;4971646;28;25105;-74
2023/05/19 03:19:31;;;;;;;13.98;6.25;;;;;;;;;;4972924;28;25064;-73
2023/05/19 03:21:57;;;;;;;18.02;6.65;;;;;;;;;;4972404;28;25152;-72
2023/05/19 03:24:23;;;;;;;15.48;6.47;;;;;;;;;;4971413;28;25089;-74
2023/05/19 03:26:49;;;;;;;17.17;6.53;;;;;;;;;;4970540;28;25070;-72
2023/05/19 03:29:15;;;;;;;12.52;6.85;;;;;;;;;;4971553;28;25080;-72
2023/05/19 03:31:41;;;;;;;22.98;6.43;;;;;;;;;;4971220;28;25146;-74
2023/05/19 03:34:07;;;;;;;13.32;6.53;;;;;;;;;;4972850;28;25054;-71
2023/05/19 03:36:38;;;;;;;14.73;6.22;;;;;;;;;;4971540;28;25107;-71
2023/05/19 03:39:04;;;;;;;18.25;7.35;;;;;;;;;;4970880;28;25072;-71
2023/05/19 03:41:30;;;;;;;12.75;6.93;;;;;;;;;;4971928;28;25068;-72
2023/05/19 03:43:56;;;;;;;17.30;6.43;;;;;;;;;;4969824;28;25071;-73
2023/05/19 03:46:22;;;;;;;15.68;6.85;;;;;;;;;;4972206;28;25074;-71
2023/05/19 03:48:48;;;;;;;13.75;7.03;;;;;;;;;;4971578;28;25111;-71
2023/05/19 03:51:14;;;;;;;10.35;6.47;;;;;;;;;;4971559;28;25142;-73
2023/05/19 03:53:40;;;;;;;11.75;6.10;;;;;;;;;;4973056;28;25056;-71
2023/05/19 03:56:06;;;;;;;10.20;6.70;;;;;;;;;;4971258;28;25067;-72
2023/05/19 03:58:33;;;;;;;16.90;6.38;;;;;;;;;;4972535;28;25075;-72
2023/05/19 04:00:59;;;;;;;24.77;7.93;;;;;;;;;;4970981;28;25064;-73
2023/05/19 04:03:25;;;;;;;11.55;5.88;;;;;;;;;;4973228;28;25128;-73
2023/05/19 04:05:51;;;;;;;12.50;6.65;;;;;;;;;;4975146;28;25078;-72
2023/05/19 04:08:17;;;;;;;15.45;6.43;;;;;;;;;;4971630;28;25071;-74
2023/05/19 04:10:43;;;;;;;18.40;7.30;;;;;;;;;;4973274;28;25054;-72
2023/05/19 04:13:10;;;;;;;16.95;6.82;;;;;;;;;;4971822;28;25107;-71
2023/05/19 04:15:36;;;;;;;14.23;6.82;;;;;;;;;;4970635;28;25134;-73
2023/05/19 04:18:02;;;;;;;20.08;7.82;;;;;;;;;;4970521;28;25075;-74
2023/05/19 04:20:28;;;;;;;12.00;7.05;;;;;;;;;;4969928;28;25076;-72
2023/05/19 04:22:54;;;;;;;14.73;6.32;;;;;;;;;;4970833;28;25078;-73
2023/05/19 04:25:20;;;;;;;16.13;6.97;;;;;;;;;;4971888;28;25097;-72
2023/05/19 04:27:47;;;;;;;17.35;6.85;;;;;;;;;;4969281;28;25073;-73
2023/05/19 04:30:20;;;;;;;19.08;6.80;;;;;;;;;;4972689;28;25054;-70
2023/05/19 04:32:47;;;;;;;15.35;7.90;;;;;;;;;;4970546;28;25060;-73
2023/05/19 04:35:14;;;;;;;20.77;7.63;;;;;;;;;;4973416;28;25060;-71
2023/05/19 04:37:40;;;;;;;23.40;7.78;;;;;;;;;;4972194;28;25062;-72
2023/05/19 04:40:09;;;;;;;14.27;6.82;;;;;;;;;;4970613;28;25097;-73
2023/05/19 04:42:35;;;;;;;18.60;6.07;;;;;;;;;;4968068;28;25086;-72
2023/05/19 04:45:04;;;;;;;25.35;7.45;;;;;;;;;;4970735;28;25131;-71
2023/05/19 04:47:30;;;;;;;17.00;7.82;;;;;;;;;;4966607;28;25077;-71
2023/05/19 04:49:56;;;;;;;15.52;9.00;;;;;;;;;;4970448;28;25064;-70
2023/05/19 04:52:22;;;;;;;13.15;7.05;;;;;;;;;;4970707;28;25150;-70
2023/05/19 04:54:48;;;;;;;16.02;7.38;;;;;;;;;;4969180;28;25132;-72
2023/05/19 04:57:14;;;;;;;17.42;8.43;;;;;;;;;;4968175;28;25049;-71
2023/05/19 04:59:40;;;;;;;17.95;7.30;;;;;;;;;;4970901;28;25070;-69
2023/05/19 05:02:06;;;;;;;21.23;7.53;;;;;;;;;;4972757;28;25147;-70
2023/05/19 05:04:32;;;;;;;16.52;7.43;;;;;;;;;;4971648;28;25079;-71
2023/05/19 05:06:58;;;;;;;20.20;6.97;;;;;;;;;;4978302;28;25063;-71
2023/05/19 05:09:24;;;;;;;17.25;8.15;;;;;;;;;;4971197;28;25148;-70
2023/05/19 05:11:50;;;;;;;14.57;7.88;;;;;;;;;;4967558;28;25109;-70
2023/05/19 05:14:16;;;;;;;23.80;8.20;;;;;;;;;;4967615;28;25075;-71
2023/05/19 05:16:42;;;;;;;15.90;6.85;;;;;;;;;;4966569;28;25148;-70
2023/05/19 05:19:08;;;;;;;17.17;6.45;;;;;;;;;;4968937;28;25068;-75
2023/05/19 05:21:35;;;;;;;14.75;6.75;;;;;;;;;;4970186;28;25158;-71
2023/05/19 05:24:01;;;;;;;17.58;7.25;;;;;;;;;;4971915;28;25107;-70
2023/05/19 05:26:29;;;;;;;17.40;7.18;;;;;;;;;;4974955;28;25070;-70
2023/05/19 05:28:55;;;;;;;14.00;7.07;;;;;;;;;;4973751;28;25065;-71
2023/05/19 05:31:21;;;;;;;13.82;7.32;;;;;;;;;;4974725;28;25115;-72
2023/05/19 05:33:47;;;;;;;19.85;7.45;;;;;;;;;;4972225;28;25065;-71
2023/05/19 05:36:13;;;;;;;19.25;7.40;;;;;;;;;;4975280;28;25076;-69
2023/05/19 05:38:39;;;;;;;14.25;6.53;;;;;;;;;;4975358;28;25063;-71
2023/05/19 05:41:05;;;;;;;15.57;7.10;;;;;;;;;;4976929;28;25078;-71
2023/05/19 05:43:31;;;;;;;19.17;7.25;;;;;;;;;;4973818;28;25056;-73
2023/05/19 05:45:57;;;;;;;12.52;7.22;;;;;;;;;;4975248;28;25055;-72
2023/05/19 05:48:23;;;;;;;14.13;7.43;;;;;;;;;;4974859;28;25053;-71
2023/05/19 05:50:49;;;;;;;21.05;9.05;;;;;;;;;;4976505;28;25063;-69
2023/05/19 05:53:20;;;;;;;20.35;7.57;;;;;;;;;;4972666;28;25072;-70
2023/05/19 05:55:46;;;;;;;17.35;9.23;;;;;;;;;;4972823;28;25141;-71
2023/05/19 05:58:14;;;;;;;20.35;7.13;;;;;;;;;;4972655;28;25123;-73
2023/05/19 06:00:44;;;;;;;14.70;6.78;;;;;;;;;;4971917;28;25070;-70
2023/05/19 06:03:10;;;;;;;21.65;7.90;;;;;;;;;;4972265;28;25061;-70
2023/05/19 06:05:36;;;;;;;14.40;6.85;;;;;;;;;;4972575;28;25108;-71
2023/05/19 06:08:02;;;;;;;21.70;7.18;;;;;;;;;;4970478;28;25064;-71
2023/05/19 06:10:29;;;;;;;15.55;6.93;;;;;;;;;;4973962;28;25103;-70
2023/05/19 06:12:55;;;;;;;13.18;6.88;;;;;;;;;;4972417;28;25095;-70
2023/05/19 06:15:21;;;;;;;11.40;6.18;;;;;;;;;;4963881;28;25077;-71
2023/05/19 06:17:47;;;;;;;17.85;7.28;;;;;;;;;;4964178;28;25046;-72
2023/05/19 06:20:13;;;;;;;14.13;6.95;;;;;;;;;;4967179;28;25124;-72
2023/05/19 06:22:39;;;;;;;19.85;8.32;;;;;;;;;;4964055;28;25138;-73
2023/05/19 06:25:07;;;;;;;18.42;7.00;;;;;;;;;;4963203;28;25091;-73
2023/05/19 06:27:33;;;;;;;16.17;6.88;;;;;;;;;;4966617;28;25073;-71
2023/05/19 06:29:59;;;;;;;19.65;6.40;;;;;;;;;;4963838;28;25050;-71
2023/05/19 06:32:25;;;;;;;14.50;6.57;;;;;;;;;;4962956;28;25076;-71
2023/05/19 06:34:54;;;;;;;13.60;6.38;;;;;;;;;;4962648;28;25119;-72
2023/05/19 06:37:24;;;;;;;16.70;6.93;;;;;;;;;;4962195;28;25139;-71
2023/05/19 06:39:51;;;;;;;16.30;5.95;;;;;;;;;;4964181;28;25060;-70
2023/05/19 06:42:21;;;;;;;16.70;6.85;;;;;;;;;;4964464;28;25067;-70
2023/05/19 06:44:47;;;;;;;14.27;6.43;;;;;;;;;;4963800;28;25085;-71
2023/05/19 06:47:13;;;;;;;10.38;5.80;;;;;;;;;;4964093;28;25091;-69
2023/05/19 06:49:39;;;;;;;11.18;6.30;;;;;;;;;;4965677;28;25158;-70
2023/05/19 06:52:05;;;;;;;13.32;6.32;;;;;;;;;;4964695;28;25065;-72
2023/05/19 06:54:31;;;;;;;14.25;6.22;;;;;;;;;;4963585;28;25140;-71
2023/05/19 06:56:57;;;;;;;14.90;6.22;;;;;;;;;;4961904;28;25059;-71
2023/05/19 06:59:23;;;;;;;8.90;5.68;;;;;;;;;;4963668;28;25052;-70
2023/05/19 07:01:49;;;;;;;16.02;7.55;;;;;;;;;;4963635;28;25176;-71
2023/05/19 07:04:15;;;;;;;14.27;6.13;;;;;;;;;;4964842;28;25088;-71
2023/05/19 07:06:41;;;;;;;12.80;5.88;;;;;;;;;;4962767;28;25080;-72
2023/05/19 07:09:07;;;;;;;14.00;6.90;;;;;;;;;;4963275;28;25071;-72
2023/05/19 07:11:33;;;;;;;12.48;6.30;;;;;;;;;;4964851;28;25130;-72
2023/05/19 07:13:59;;;;;;;14.77;6.57;;;;;;;;;;4968762;28;25080;-71
2023/05/19 07:16:25;;;;;;;13.45;5.18;;;;;;;;;;4973809;28;25066;-71
2023/05/19 07:18:51;;;;;;;10.00;5.15;;;;;;;;;;4965881;28;25080;-72
2023/05/19 07:21:17;;;;;;;14.45;5.68;;;;;;;;;;4968281;28;25078;-69
2023/05/19 07:23:43;;;;;;;11.40;5.40;;;;;;;;;;4963644;28;25072;-71
2023/05/19 07:26:09;;;;;;;12.60;5.93;;;;;;;;;;4964380;28;25125;-69
2023/05/19 07:28:35;;;;;;;12.23;5.65;;;;;;;;;;4963092;28;25135;-70
2023/05/19 07:31:01;;;;;;;14.43;5.32;;;;;;;;;;4963763;28;25113;-72
2023/05/19 07:33:27;;;;;;;10.38;5.63;;;;;;;;;;4960788;28;25154;-70
2023/05/19 07:35:53;;;;;;;13.48;5.05;;;;;;;;;;4966106;28;25169;-71
2023/05/19 07:38:20;;;;;;;9.98;5.55;;;;;;;;;;4961450;28;25056;-70
2023/05/19 07:40:46;;;;;;;11.80;5.10;;;;;;;;;;4963650;28;25095;-72
2023/05/19 07:43:12;;;;;;;8.80;4.78;;;;;;;;;;4962249;28;25093;-72
2023/05/19 07:45:38;;;;;;;11.90;4.80;;;;;;;;;;4962572;28;25041;-72
2023/05/19 07:48:04;;;;;;;7.25;4.32;;;;;;;;;;4962355;28;25084;-75
2023/05/19 07:50:30;;;;;;;9.30;4.32;;;;;;;;;;4967693;28;25073;-72
2023/05/19 07:52:56;;;;;;;11.07;4.40;;;;;;;;;;4965560;28;25077;-74
2023/05/19 07:55:22;;;;;;;10.35;4.22;;;;;;;;;;4964031;28;25076;-73
2023/05/19 07:57:49;;;;;;;10.57;4.70;;;;;;;;;;4960753;28;25061;-74
2023/05/19 08:00:16;;;;;;;10.70;5.00;;;;;;;;;;4962978;28;25061;-70
2023/05/19 08:02:42;;;;;;;10.90;4.78;;;;;;;;;;4961374;28;25051;-71
2023/05/19 08:05:09;;;;;;;14.48;5.38;;;;;;;;;;4963287;28;25132;-70
2023/05/19 08:07:35;;;;;;;14.05;5.03;;;;;;;;;;4962860;28;25063;-71
2023/05/19 08:10:01;;;;;;;8.90;4.63;;;;;;;;;;4968718;28;25074;-72
2023/05/19 08:12:27;;;;;;;12.25;4.57;;;;;;;;;;4962952;28;25092;-71
2023/05/19 08:14:53;;;;;;;10.07;4.55;;;;;;;;;;4964251;28;25098;-74
2023/05/19 08:17:19;;;;;;;10.82;4.60;;;;;;;;;;4964391;28;25070;-70
2023/05/19 08:19:45;;;;;;;12.45;5.03;;;;;;;;;;4964310;28;25172;-72
2023/05/19 08:22:11;;;;;;;10.80;4.63;;;;;;;;;;4964698;28;25095;-70
2023/05/19 08:24:38;;;;;;;6.57;3.30;;;;;;;;;;4964274;28;25088;-70
2023/05/19 08:27:04;;;;;;;14.73;4.40;;;;;;;;;;4961787;28;25091;-71
2023/05/19 08:29:30;;;;;;;4.65;3.67;;;;;;;;;;4962068;28;25124;-70
2023/05/19 08:31:57;;;;;;;12.25;3.85;;;;;;;;;;4963134;28;25059;-71
2023/05/19 08:34:23;;;;;;;10.48;3.72;;;;;;;;;;4960876;28;25058;-74
2023/05/19 08:36:49;;;;;;;11.52;3.72;;;;;;;;;;4962419;28;25071;-71
2023/05/19 08:39:17;;;;;;;11.10;3.75;;;;;;;;;;4964860;28;25133;-70
2023/05/19 08:41:43;;;;;;;9.73;3.42;;;;;;;;;;4968157;28;25070;-71
2023/05/19 08:44:09;;;;;;;11.38;3.78;;;;;;;;;;4961948;28;25139;-71
2023/05/19 08:46:35;;;;;;;6.88;3.92;;;;;;;;;;4962847;28;25049;-71
2023/05/19 08:49:04;;;;;;;8.98;3.58;;;;;;;;;;4962054;28;25124;-69
2023/05/19 08:51:38;;;;;;;5.45;3.28;;;;;;;;;;4963309;28;25081;-69
2023/05/19 08:54:12;;;;;;;8.60;3.17;;;;;;;;;;4961814;28;25097;-71
2023/05/19 08:56:38;;;;;;;9.88;3.00;;;;;;;;;;4960916;28;25132;-70
2023/05/19 08:59:05;;;;;;;7.85;3.00;;;;;;;;;;4962169;28;25138;-71
2023/05/19 09:01:31;;;;;;;7.05;3.17;;;;;;;;;;4969224;28;25069;-73
2023/05/19 09:03:57;;;;;;;12.13;3.67;;;;;;;;;;4964829;28;25064;-71
2023/05/19 09:06:24;;;;;;;6.85;3.13;;;;;;;;;;4964948;28;25050;-70
2023/05/19 09:08:50;;;;;;;6.40;3.22;;;;;;;;;;4965237;28;25062;-71
2023/05/19 09:11:16;;;;;;;8.43;3.20;;;;;;;;;;4965748;28;25059;-71
2023/05/19 09:13:42;;;;;;;10.23;2.92;;;;;;;;;;4963736;28;25099;-71
2023/05/19 09:16:08;;;;;;;11.57;3.60;;;;;;;;;;4965440;28;25061;-72
2023/05/19 09:18:38;;;;;;;7.38;2.53;;;;;;;;;;4966473;28;25075;-73
2023/05/19 09:21:06;;;;;;;11.57;3.45;;;;;;;;;;4964042;28;25088;-72
2023/05/19 09:23:32;;;;;;;5.47;2.53;;;;;;;;;;4966753;28;25060;-70
2023/05/19 09:26:02;;;;;;;5.88;2.53;;;;;;;;;;4968434;28;25050;-71
2023/05/19 09:28:30;;;;;;;7.28;1.83;;;;;;;;;;4963896;28;25059;-72
2023/05/19 09:31:03;;;;;;;4.68;1.92;;;;;;;;;;4964341;28;25095;-73
2023/05/19 09:33:29;;;;;;;10.32;2.70;;;;;;;;;;4963293;28;25138;-73
2023/05/19 09:35:56;;;;;;;9.60;2.53;;;;;;;;;;4963213;28;25120;-71
2023/05/19 09:38:25;;;;;;;5.45;2.58;;;;;;;;;;4964967;28;25085;-72
2023/05/19 09:40:52;;;;;;;6.65;2.60;;;;;;;;;;4964587;28;25107;-73
2023/05/19 09:43:18;;;;;;;9.07;2.38;;;;;;;;;;4964755;28;25130;-71
2023/05/19 09:45:44;;;;;;;7.03;2.75;;;;;;;;;;4963623;28;25157;-72
2023/05/19 09:48:10;;;;;;;6.72;2.22;;;;;;;;;;4964848;28;25073;-73
2023/05/19 09:50:37;;;;;;;4.10;1.83;;;;;;;;;;4964435;28;25121;-71
2023/05/19 09:53:03;;;;;;;9.23;2.15;;;;;;;;;;4965219;28;25140;-72
2023/05/19 09:55:31;;;;;;;5.05;2.13;;;;;;;;;;4964814;28;25072;-71
2023/05/19 09:57:59;;;;;;;7.57;1.90;;;;;;;;;;4964900;28;25148;-72
2023/05/19 10:00:26;;;;;;;7.07;2.13;;;;;;;;;;4966411;28;25133;-75
2023/05/19 10:02:52;;;;;;;10.05;2.03;;;;;;;;;;4964491;28;25162;-75
2023/05/19 10:05:18;;;;;;;4.28;1.70;;;;;;;;;;4964072;28;25073;-72
2023/05/19 10:07:50;;;;;;;5.53;1.70;;;;;;;;;;4965388;28;25152;-72
2023/05/19 10:10:16;;;;;;;6.70;2.13;;;;;;;;;;4962548;28;25099;-72
2023/05/19 10:12:43;;;;;;;4.63;2.50;;;;;;;;;;4963262;28;25134;-71
2023/05/19 10:15:10;;;;;;;6.25;1.83;;;;;;;;;;4961307;28;25081;-73
2023/05/19 10:17:37;;;;;;;4.22;2.05;;;;;;;;;;4964145;28;25046;-72
2023/05/19 10:20:05;;;;;;;7.53;2.50;;;;;;;;;;4961605;28;25053;-73
2023/05/19 10:22:31;;;;;;;9.65;2.08;;;;;;;;;;4961751;28;25075;-75
2023/05/19 10:24:57;;;;;;;10.40;1.95;;;;;;;;;;4963410;28;25175;-72
2023/05/19 10:27:25;;;;;;;5.80;2.70;;;;;;;;;;4965749;28;25105;-71
2023/05/19 10:29:52;;;;;;;7.00;2.35;;;;;;;;;;4969021;28;25066;-71
2023/05/19 10:32:22;;;;;;;5.38;2.00;;;;;;;;;;4970429;28;25125;-70
2023/05/19 10:35:11;;;;;;;6.30;2.00;;;;;;;;;;4964904;28;25098;-72
2023/05/19 10:37:46;;;;;;;5.32;2.00;;;;;;;;;;4964004;28;25055;-74
2023/05/19 10:40:18;;;;;;;7.03;2.13;;;;;;;;;;4967186;28;25154;-70
2023/05/19 10:42:51;;;;;;;6.72;2.47;;;;;;;;;;4963564;28;25108;-74
2023/05/19 10:45:19;;;;;;;5.18;2.20;;;;;;;;;;4963215;28;25078;-75
2023/05/19 10:47:45;;;;;;;10.43;1.80;;;;;;;;;;4964035;28;25057;-71
2023/05/19 10:50:11;;;;;;;11.57;2.33;;;;;;;;;;4962799;28;25054;-70
2023/05/19 10:52:38;;;;;;;4.07;1.50;;;;;;;;;;4962934;28;25070;-72
2023/05/19 10:55:07;;;;;;;8.50;2.65;;;;;;;;;;4963392;28;25061;-72
2023/05/19 10:57:34;;;;;;;6.70;2.05;;;;;;;;;;4961637;28;25140;-72
2023/05/19 11:00:09;;;;;;;8.15;2.00;;;;;;;;;;4964136;28;25126;-71
2023/05/19 11:02:41;;;;;;;7.90;1.98;;;;;;;;;;4963570;28;25070;-73
2023/05/19 11:05:19;;;;;;;5.38;2.35;;;;;;;;;;4961802;28;25077;-71
2023/05/19 11:07:56;;;;;;;6.55;2.70;;;;;;;;;;4963490;28;25078;-72
2023/05/19 11:10:25;;;;;;;7.47;2.25;;;;;;;;;;4963831;28;25064;-73
2023/05/19 11:12:51;;;;;;;8.63;2.10;;;;;;;;;;4962339;28;25071;-71
2023/05/19 11:15:17;;;;;;;9.30;2.53;;;;;;;;;;4962925;28;25051;-71
2023/05/19 11:17:47;;;;;;;5.82;2.03;;;;;;;;;;4962339;28;25078;-71
2023/05/19 11:20:24;;;;;;;9.88;2.72;;;;;;;;;;4965460;28;25073;-72
2023/05/19 11:23:09;;;;;;;10.55;3.78;;;;;;;;;;4962549;28;25088;-71
2023/05/19 11:25:45;;;;;;;5.57;1.85;;;;;;;;;;4963371;28;25102;-72
2023/05/19 11:28:12;;;;;;;7.50;3.10;;;;;;;;;;4963426;28;25046;-73
2023/05/19 11:30:39;;;;;;;6.80;2.40;;;;;;;;;;4962980;28;25050;-71
2023/05/19 11:33:05;;;;;;;6.28;2.63;;;;;;;;;;4963117;28;25046;-71
2023/05/19 11:35:32;;;;;;;6.45;2.30;;;;;;;;;;4972301;28;25069;-71
2023/05/19 11:37:59;;;;;;;7.03;1.98;;;;;;;;;;4966766;28;25126;-72
2023/05/19 11:40:25;;;;;;;7.60;2.58;;;;;;;;;;4965527;28;25076;-73
2023/05/19 11:42:51;;;;;;;10.02;2.30;;;;;;;;;;4963177;28;25083;-70
2023/05/19 11:45:17;;;;;;;5.82;2.42;;;;;;;;;;4963309;28;25141;-72
2023/05/19 11:47:45;;;;;;;11.73;3.15;;;;;;;;;;4961541;28;25115;-72
2023/05/19 11:50:11;;;;;;;8.07;2.22;;;;;;;;;;4962416;28;25074;-73
2023/05/19 11:52:37;;;;;;;8.60;2.25;;;;;;;;;;4962294;28;25060;-71
2023/05/19 11:55:03;;;;;;;10.00;2.72;;;;;;;;;;4963435;28;25132;-72
2023/05/19 11:57:29;;;;;;;5.85;2.35;;;;;;;;;;4964644;28;25166;-72
2023/05/19 11:59:55;;;;;;;8.18;2.33;;;;;;;;;;4965043;28;25092;-70
2023/05/19 12:02:26;;;;;;;10.25;2.78;;;;;;;;;;4963307;28;25154;-73
2023/05/19 12:04:52;;;;;;;7.93;2.47;;;;;;;;;;4961829;28;25065;-73
2023/05/19 12:07:21;;;;;;;8.63;2.63;;;;;;;;;;4962405;28;25086;-71
2023/05/19 12:09:47;;;;;;;8.05;2.13;;;;;;;;;;4961819;28;25156;-74
2023/05/19 12:12:17;;;;;;;5.53;2.08;;;;;;;;;;4961654;28;25073;-74
2023/05/19 12:14:43;;;;;;;5.13;2.08;;;;;;;;;;4961622;28;25076;-73
2023/05/19 12:17:11;;;;;;;4.28;1.83;;;;;;;;;;4961282;28;25074;-72
2023/05/19 12:19:37;;;;;;;4.63;1.70;;;;;;;;;;4962298;28;25130;-73
2023/05/19 12:22:03;;;;;;;3.58;2.00;;;;;;;;;;4960548;28;25070;-74
2023/05/19 12:24:29;;;;;;;9.43;2.13;;;;;;;;;;4961391;28;25073;-71
2023/05/19 12:27:12;;;;;;;6.25;2.15;;;;;;;;;;4959958;28;25111;-74
2023/05/19 12:29:38;;;;;;;5.57;2.08;;;;;;;;;;4960554;28;25063;-75
2023/05/19 12:32:06;;;;;;;5.75;2.55;;;;;;;;;;4962602;28;25161;-73
2023/05/19 12:34:34;;;;;;;4.75;2.00;;;;;;;;;;4961089;28;25108;-76
2023/05/19 12:37:01;;;;;;;5.00;1.85;;;;;;;;;;4961287;28;25137;-75
2023/05/19 12:39:28;;;;;;;6.82;1.70;;;;;;;;;;4967519;28;25075;-74
2023/05/19 12:42:00;;;;;;;5.28;1.80;;;;;;;;;;4963948;28;25076;-74
2023/05/19 12:44:27;;;;;;;7.80;2.72;;;;;;;;;;4963125;28;25141;-73
2023/05/19 12:46:53;;;;;;;2.80;1.77;;;;;;;;;;4960387;28;25056;-74
2023/05/19 12:49:19;;;;;;;5.68;1.90;;;;;;;;;;4962565;28;25063;-73
2023/05/19 12:51:51;;;;;;;5.97;2.20;;;;;;;;;;4961749;28;25059;-72
2023/05/19 12:54:20;;;;;;;4.75;1.63;;;;;;;;;;4961951;28;25045;-73
2023/05/19 12:56:52;;;;;;;3.60;1.58;;;;;;;;;;4960747;28;25074;-71
2023/05/19 12:59:22;;;;;;;5.68;2.28;;;;;;;;;;4964249;28;25140;-73
2023/05/19 13:01:55;;;;;;;9.10;2.40;;;;;;;;;;4960752;28;25055;-74
2023/05/19 13:04:21;;;;;;;5.15;1.95;;;;;;;;;;4961648;28;25115;-71
2023/05/19 13:06:48;;;;;;;6.15;2.28;;;;;;;;;;4960294;28;25139;-71
2023/05/19 13:09:15;;;;;;;8.77;2.17;;;;;;;;;;4961084;28;25126;-76
2023/05/19 13:11:42;;;;;;;6.20;2.55;;;;;;;;;;4962132;28;25067;-74
2023/05/19 13:14:08;;;;;;;6.82;2.03;;;;;;;;;;4960999;28;25054;-71
2023/05/19 13:16:34;;;;;;;6.57;2.22;;;;;;;;;;4962076;28;25094;-76
2023/05/19 13:19:00;;;;;;;5.57;2.15;;;;;;;;;;4959848;28;25056;-71
2023/05/19 13:21:26;;;;;;;8.35;2.88;;;;;;;;;;4959667;28;25079;-74
2023/05/19 13:23:52;;;;;;;4.57;2.17;;;;;;;;;;4961301;28;25091;-72
2023/05/19 13:26:18;;;;;;;7.40;2.47;;;;;;;;;;4961185;28;25058;-76
2023/05/19 13:28:44;;;;;;;4.95;2.20;;;;;;;;;;4962158;28;25147;-71
2023/05/19 13:31:10;;;;;;;5.40;1.60;;;;;;;;;;4959164;28;25067;-76
2023/05/19 13:33:36;;;;;;;8.27;2.20;;;;;;;;;;4960773;28;25071;-73
2023/05/19 13:36:02;;;;;;;6.03;2.42;;;;;;;;;;4959706;28;25051;-74
2023/05/19 13:38:29;;;;;;;10.07;2.63;;;;;;;;;;4962758;28;25086;-72
2023/05/19 13:40:55;;;;;;;5.30;2.33;;;;;;;;;;4962199;28;25096;-74
2023/05/19 13:43:21;;;;;;;4.32;2.42;;;;;;;;;;4959441;28;25156;-75
2023/05/19 13:45:47;;;;;;;5.07;2.03;;;;;;;;;;4965843;28;25073;-73
2023/05/19 13:48:13;;;;;;;8.82;2.00;;;;;;;;;;4972751;28;25094;-73
2023/05/19 13:50:39;;;;;;;7.35;2.50;;;;;;;;;;4967004;28;25066;-73
2023/05/19 13:53:05;;;;;;;6.43;2.42;;;;;;;;;;4965338;28;25070;-72
2023/05/19 13:55:31;;;;;;;7.75;2.85;;;;;;;;;;4965147;28;25120;-72
2023/05/19 13:57:57;;;;;;;4.47;2.40;;;;;;;;;;4964554;28;25058;-72
2023/05/19 14:00:23;;;;;;;5.10;2.03;;;;;;;;;;4964979;28;25083;-72
2023/05/19 14:02:49;;;;;;;9.38;2.80;;;;;;;;;;4962937;28;25066;-74
2023/05/19 14:05:15;;;;;;;9.27;3.03;;;;;;;;;;4961047;28;25159;-71
2023/05/19 14:07:41;;;;;;;7.53;3.30;;;;;;;;;;4962129;28;25077;-72
2023/05/19 14:10:08;;;;;;;15.05;3.17;;;;;;;;;;4965216;28;25084;-74
2023/05/19 14:12:35;;;;;;;6.40;3.08;;;;;;;;;;4967796;28;25079;-70
2023/05/19 14:15:01;;;;;;;9.20;3.13;;;;;;;;;;4967140;28;25053;-72
2023/05/19 14:17:27;;;;;;;5.38;2.53;;;;;;;;;;4965609;28;25091;-72
2023/05/19 14:19:53;;;;;;;9.82;2.80;;;;;;;;;;4963881;28;25059;-73
2023/05/19 14:22:19;;;;;;;7.43;2.78;;;;;;;;;;4965346;28;25066;-72
2023/05/19 14:24:45;;;;;;;8.27;2.35;;;;;;;;;;4965220;28;25070;-71
2023/05/19 14:27:11;;;;;;;8.85;2.42;;;;;;;;;;4964031;28;25151;-72
2023/05/19 14:29:37;;;;;;;6.55;2.13;;;;;;;;;;4967279;28;25162;-73
2023/05/19 14:32:04;;;;;;;13.82;2.72;;;;;;;;;;4963843;28;25058;-73
2023/05/19 14:34:30;;;;;;;10.50;3.00;;;;;;;;;;4965704;28;25058;-71